サンティアゴ の空港の天気 - METARとTAF

アルトゥーロ・メリノ・ベニテス国際空港(サンティアゴ) ( SCEL / SCL ) - チリ サンティアゴ
飛行場実況気象(Metar)
観測時間09/22 20:00 CLST (09/22 23:00 UTC)
風向・風速南西 6m/s
視程10km以上
天気現象
なし
気温15℃
湿度55%
気圧1022hPa
METARSCEL 222300Z 22012KT CAVOK 15/06 Q1022 NOSIG
過去の天気等 Google飛行場航空写真 Wunderground天気予報

過去48時間のMETAR

飛行場予報(TAF)
発表時間: 9/22 19:00 CLST (9/22 22:00 UTC)
予報対象時間: 22日21時 CLST ~ 23日21時 CLST
風向・風速南 6m/s
視程10km以上
なし
22日22時 CLST ~ 22日24時 CLST に徐々に
風向・風速南南東 2m/s
23日1時 CLST ~ 23日3時 CLST に徐々に
視程8000m
なし
23日13時 CLST ~ 23日15時 CLST に徐々に
風向・風速南 5m/s
TAF SCEL 222200Z 2300/2324 19012KT CAVOK TX27/2318Z TN04/2310Z
BECMG 2301/2303 16004KT
BECMG 2304/2306 8000 NSC
BECMG 2316/2318 19010KT